Latest Weather Observations for Mallacoota

IDV60801

Issued at 7:02 pm EST Wednesday 25 May 2016 (issued every 30 minutes, with the page automatically refreshed every 10 minutes)

About weather observations | Map of weather stations | Latest weather observations for VIC | Other Formats
Station Details ID: 084084 Name: MALLACOOTA Lat: -37.60 Lon: 149.73 Height: 22.0 m
Data from the previous 72 hours. | See also: Recent months at Mallacoota
Date/Time
EST
Temp
°C
App
Temp
°C
Dew
Point
Rel
Hum
%
Delta-T
°C
Wind Press
QNH
hPa
Press
MSL
hPa
Rain
since 9 am
mm
Dir
 
Spd
km/h
Gust
km/h
Spd
kts
Gust
kts
25/07:00pm 12.4 10.1 7.5 72 2.4 NNW 9 13 5 7 1011.3 - 0.0
25/06:30pm 12.7 10.1 7.6 71 2.5 NNW 11 15 6 8 1011.6 - 0.0
25/06:00pm 11.9 9.9 8.6 80 1.6 N 9 13 5 7 1011.7 1011.7 0.0
25/05:30pm 11.9 10.5 8.7 81 1.6 NNW 6 7 3 4 1011.6 - 0.0
25/05:00pm 12.6 12.4 9.1 79 1.8 CALM 0 0 0 0 1011.4 - 0.0
25/04:30pm 13.5 13.3 9.0 74 2.3 CALM 0 0 0 0 1011.6 - 0.0
25/04:00pm 14.8 14.4 8.1 64 3.4 CALM 0 0 0 0 1011.9 - 0.0
25/03:30pm 15.3 13.9 7.1 58 4.0 W 4 9 2 5 1012.0 - 0.0
25/03:00pm 15.5 13.1 6.8 56 4.3 W 9 15 5 8 1011.8 1011.8 0.0
25/02:30pm 16.5 14.6 6.6 52 4.9 NW 6 9 3 5 1011.9 - 0.0
25/02:00pm 16.0 13.8 6.2 52 4.8 W 7 15 4 8 1012.2 - 0.0
25/01:30pm 15.2 12.7 6.5 56 4.2 W 9 17 5 9 1012.6 - 0.0
25/01:00pm 15.6 13.7 7.6 59 4.0 W 7 11 4 6 1012.9 - 0.0
25/12:30pm 15.3 12.9 6.8 57 4.2 WSW 9 15 5 8 1013.1 - 0.0
25/12:00pm 15.4 11.8 6.9 57 4.2 SSW 15 22 8 12 1013.6 1013.6 0.0
25/11:30am 15.5 12.5 7.5 59 4.0 WSW 13 20 7 11 1014.2 - 0.0
25/11:00am 14.9 11.0 7.2 60 3.8 SW 17 26 9 14 1014.9 - 0.0
25/10:30am 14.3 11.2 7.4 63 3.4 W 13 20 7 11 1015.3 - 0.0
25/10:00am 14.2 11.4 7.0 62 3.5 W 11 19 6 10 1015.2 - 0.0
25/09:30am 13.1 9.8 6.5 64 3.2 W 13 22 7 12 1015.2 - 0.0
25/09:00am 12.0 8.3 6.5 69 2.6 W 15 24 8 13 1015.7 1015.7 4.2
25/08:30am 11.2 7.9 6.3 72 2.3 WNW 13 20 7 11 1016.0 - 4.2
25/08:00am 10.8 7.5 6.4 74 2.1 WNW 13 20 7 11 1016.0 - 4.2
25/07:30am 10.3 7.0 6.3 76 1.9 WNW 13 20 7 11 1016.1 - 4.2
25/07:00am 10.4 6.7 6.4 76 1.9 W 15 24 8 13 1015.9 - 4.2
25/06:30am 10.8 7.1 6.4 74 2.1 W 15 28 8 15 1015.7 - 4.2
25/06:00am 11.4 8.5 6.5 72 2.3 W 11 22 6 12 1015.4 1015.4 4.2
25/05:30am 11.6 7.6 6.7 72 2.3 W 17 24 9 13 1015.2 - 4.2
25/05:00am 11.5 7.6 7.0 74 2.1 W 17 30 9 16 1015.0 - 4.2
25/04:30am 11.6 8.4 6.9 73 2.2 W 13 28 7 15 1014.9 - 4.2
25/04:00am 11.4 8.1 6.5 72 2.3 W 13 22 7 12 1014.7 - 4.2
25/03:30am 11.6 8.3 6.3 70 2.5 W 13 24 7 13 1014.6 - 4.2
25/03:00am 11.9 7.7 5.8 66 2.8 W 17 28 9 15 1014.8 1014.8 4.2
25/02:30am 11.9 7.8 6.2 68 2.7 W 17 35 9 19 1014.9 - 4.2
25/02:00am 11.5 7.7 6.0 69 2.6 W 15 33 8 18 1015.1 - 4.2
25/01:30am 11.4 7.7 6.1 70 2.5 W 15 24 8 13 1015.1 - 4.2
25/01:00am 11.7 8.3 6.0 68 2.7 WSW 13 28 7 15 1015.2 - 4.2
25/12:30am 11.8 8.0 5.9 67 2.8 W 15 24 8 13 1015.4 - 4.2
25/12:00am 12.2 8.5 6.3 67 2.8 WSW 15 28 8 15 1015.6 1015.6 4.2
 
Date/Time
EST
Temp
°C
App
Temp
°C
Dew
Point
Rel
Hum
%
Delta-T
°C
Wind Press
QNH
hPa
Press
MSL
hPa
Rain
since 9 am
mm
Dir
 
Spd
km/h
Gust
km/h
Spd
kts
Gust
kts
24/11:30pm 11.4 8.6 7.1 75 2.1 SW 11 17 6 9 1015.8 - 4.2
24/11:00pm 11.0 7.2 8.9 87 1.0 SW 19 30 10 16 1015.9 - 4.2
24/10:30pm 10.7 6.2 8.6 87 1.0 SSW 22 35 12 19 1016.1 - 4.2
24/10:00pm 10.7 7.0 7.9 83 1.4 SW 17 35 9 19 1016.0 - 4.0
24/09:30pm 11.5 7.3 7.4 76 2.0 SW 19 33 10 18 1016.3 - 4.0
24/09:00pm 11.6 8.1 7.1 74 2.2 SW 15 32 8 17 1016.1 1016.1 4.0
24/08:30pm 10.7 7.2 8.6 87 1.0 SSW 17 22 9 12 1016.3 - 4.0
24/08:00pm 10.7 7.3 9.1 90 0.8 SW 17 30 9 16 1015.9 - 3.8
24/07:30pm 10.9 6.5 9.0 88 0.9 SW 22 44 12 24 1016.1 - 3.4
24/07:00pm 11.0 7.3 9.3 89 0.9 SW 19 32 10 17 1015.8 - 2.8
24/06:30pm 11.4 7.4 8.3 81 1.5 SW 19 30 10 16 1015.6 - 1.6
24/06:00pm 12.4 8.2 7.5 72 2.4 SW 19 33 10 18 1015.3 1015.3 1.4
24/05:30pm 12.7 8.4 7.0 68 2.7 SW 19 32 10 17 1014.7 - 1.4
24/05:00pm 12.5 7.8 7.6 72 2.4 WSW 22 37 12 20 1014.3 - 1.4
24/04:30pm 12.5 8.3 7.4 71 2.5 WSW 19 33 10 18 1014.2 - 1.4
24/04:00pm 11.8 7.6 8.3 79 1.7 WSW 20 35 11 19 1014.1 - 1.4
24/03:30pm 11.7 7.9 8.9 83 1.4 SW 19 35 10 19 1014.4 - 1.4
24/03:00pm 13.8 8.8 8.0 68 2.9 WSW 24 41 13 22 1014.0 1014.0 1.2
24/02:30pm 13.0 9.0 8.3 73 2.3 WSW 19 35 10 19 1014.0 - 1.2
24/02:00pm 13.5 8.5 8.1 70 2.7 WSW 24 44 13 24 1013.7 - 1.2
24/01:30pm 12.7 8.7 8.2 74 2.2 WSW 19 33 10 18 1013.9 - 1.2
24/01:00pm 12.7 8.5 9.7 82 1.5 WSW 22 46 12 25 1013.7 - 1.2
24/12:30pm 11.5 7.6 9.6 88 1.0 SW 20 35 11 19 1013.9 - 0.4
24/12:01pm 13.1 7.2 7.5 69 2.7 WSW 28 63 15 34 1014.2 - 0.0
24/12:00pm 13.2 7.7 7.4 68 2.8 WSW 26 63 14 34 1014.2 1014.2 0.0
24/11:30am 14.6 8.3 7.2 61 3.6 WSW 30 59 16 32 1013.7 - 0.0
24/11:00am 14.7 8.6 6.8 59 3.8 WSW 28 57 15 31 1014.0 - 0.0
24/10:30am 14.5 8.1 6.8 60 3.7 WSW 30 54 16 29 1014.2 - 0.0
24/10:00am 14.4 7.4 6.0 57 4.0 WSW 32 54 17 29 1014.2 - 0.0
24/09:30am 13.8 7.0 5.2 56 4.0 W 30 50 16 27 1014.2 - 0.0
24/09:24am 13.8 7.4 5.4 57 3.9 WSW 28 48 15 26 1014.1 - 0.0
24/09:00am 13.2 7.5 5.1 58 3.8 W 24 48 13 26 1014.1 1014.1 2.8
24/08:30am 12.8 7.2 5.2 60 3.5 W 24 43 13 23 1014.2 - 2.8
24/08:00am 12.4 7.1 5.1 61 3.4 WSW 22 39 12 21 1014.4 - 2.8
24/07:30am 12.1 7.4 5.0 62 3.3 WSW 19 35 10 19 1014.3 - 2.8
24/07:00am 11.6 6.7 5.0 64 3.0 W 20 43 11 23 1014.2 - 2.8
24/06:30am 11.4 6.7 5.1 65 2.9 W 19 39 10 21 1014.1 - 2.8
24/06:00am 11.5 6.6 5.2 65 2.9 W 20 39 11 21 1014.0 1014.0 2.8
24/05:30am 11.3 6.7 5.4 67 2.7 WSW 19 37 10 20 1014.0 - 2.8
24/05:00am 11.1 6.9 5.6 69 2.5 WSW 17 28 9 15 1014.0 - 2.8
24/04:30am 10.9 6.6 5.4 69 2.5 W 17 32 9 17 1014.3 - 2.8
24/04:00am 11.2 7.0 5.5 68 2.6 WSW 17 33 9 18 1014.5 - 2.8
24/03:30am 11.2 6.6 5.5 68 2.6 WSW 19 32 10 17 1014.4 - 2.8
24/03:00am 11.1 6.5 5.6 69 2.5 W 19 41 10 22 1014.6 1014.6 2.8
24/02:30am 11.1 6.9 5.6 69 2.5 W 17 37 9 20 1014.7 - 2.8
24/02:00am 10.9 6.3 5.7 70 2.4 WSW 19 33 10 18 1014.6 - 2.8
24/01:30am 10.8 6.6 5.6 70 2.4 W 17 28 9 15 1014.6 - 2.8
24/01:00am 10.9 6.7 5.7 70 2.4 W 17 30 9 16 1014.9 - 2.8
24/12:30am 10.8 6.6 5.6 70 2.4 W 17 32 9 17 1014.9 - 2.8
24/12:00am 10.9 6.3 5.4 69 2.5 W 19 35 10 19 1015.0 1015.0 2.8
 
Date/Time
EST
Temp
°C
App
Temp
°C
Dew
Point
Rel
Hum
%
Delta-T
°C
Wind Press
QNH
hPa
Press
MSL
hPa
Rain
since 9 am
mm
Dir
 
Spd
km/h
Gust
km/h
Spd
kts
Gust
kts
23/11:30pm 10.9 6.1 5.7 70 2.4 WSW 20 35 11 19 1014.9 - 2.8
23/11:00pm 11.1 6.3 5.6 69 2.5 W 20 33 11 18 1015.1 - 2.8
23/10:30pm 11.1 6.3 5.6 69 2.5 WSW 20 37 11 20 1015.0 - 2.8
23/10:00pm 10.9 6.4 6.3 73 2.2 W 19 41 10 22 1015.2 - 2.8
23/09:30pm 10.4 5.8 6.4 76 1.9 W 20 37 11 20 1015.1 - 2.6
23/09:00pm 10.2 3.8 6.9 80 1.6 WSW 30 54 16 29 1015.7 1015.7 2.2
23/08:46pm 12.2 5.7 4.9 61 3.3 WSW 28 65 15 35 1015.1 - 1.4
23/08:30pm 13.4 7.9 3.8 52 4.3 WSW 22 35 12 19 1014.6 - 1.4
23/08:00pm 13.5 7.0 4.6 55 4.1 WSW 28 48 15 26 1014.6 - 1.4
23/07:54pm 13.7 7.1 4.3 53 4.3 WSW 28 48 15 26 1014.4 - 1.4
23/07:30pm 13.8 8.8 3.6 50 4.6 WSW 19 41 10 22 1014.2 - 1.4
23/07:00pm 13.9 8.2 3.1 48 4.8 WSW 22 37 12 20 1013.9 - 1.4
23/06:30pm 13.8 8.9 3.9 51 4.5 WSW 19 41 10 22 1013.7 - 1.4
23/06:00pm 13.8 8.7 3.9 51 4.5 WSW 20 33 11 18 1013.4 1013.4 1.4
23/05:30pm 14.0 9.1 4.0 51 4.6 WSW 19 30 10 16 1013.2 - 1.4
23/05:00pm 14.2 8.6 3.7 49 4.8 WSW 22 43 12 23 1013.0 - 1.4
23/04:30pm 14.4 8.4 3.2 47 5.0 WSW 24 41 13 22 1012.5 - 1.4
23/04:00pm 15.0 9.1 3.8 47 5.1 WSW 24 46 13 25 1012.1 - 1.4
23/03:30pm 15.5 10.8 5.1 50 4.9 WSW 19 35 10 19 1012.0 - 1.4
23/03:00pm 15.6 10.1 5.8 52 4.7 WSW 24 44 13 24 1011.7 1011.7 1.4
23/02:43pm 15.8 9.6 6.3 53 4.6 WSW 28 48 15 26 1011.5 - 1.4
23/02:30pm 15.9 10.9 6.3 53 4.7 SW 22 41 12 22 1011.5 - 1.4
23/02:00pm 15.9 10.4 7.7 58 4.1 SW 26 41 14 22 1011.5 - 1.4
23/01:48pm 16.0 10.2 8.0 59 4.0 SW 28 56 15 30 1011.7 - 1.4
23/01:30pm 16.9 11.9 8.1 56 4.5 SW 24 46 13 25 1011.5 - 1.4
23/01:00pm 16.0 11.6 9.0 63 3.6 WSW 22 39 12 21 1011.3 - 1.4
23/12:37pm 14.8 9.1 8.3 65 3.3 WSW 28 59 15 32 1011.7 - 1.4
23/12:30pm 16.6 11.6 8.1 57 4.3 WSW 24 46 13 25 1011.5 - 1.4
23/12:20pm 17.3 11.7 8.7 57 4.4 SSW 28 46 15 25 1011.1 - 1.4
23/12:00pm 17.8 13.8 8.9 56 4.6 SW 20 35 11 19 1011.0 1011.0 1.4
23/11:30am 17.2 14.2 10.8 66 3.4 WSW 17 32 9 17 1010.8 - 1.4
23/11:00am 16.1 14.2 11.9 76 2.3 WSW 13 22 7 12 1011.7 - 1.4
23/10:30am 14.9 14.2 11.9 82 1.6 WNW 7 13 4 7 1011.9 - 1.4
23/10:00am 12.9 11.1 11.0 88 1.0 WSW 11 17 6 9 1012.1 - 1.4
23/09:30am 12.5 10.3 10.9 90 0.8 WSW 13 24 7 13 1012.3 - 1.0
23/09:00am 13.2 9.7 10.9 86 1.2 SW 20 37 11 20 1011.8 1011.8 0.0
23/08:30am 14.1 8.6 10.5 79 1.9 SW 30 50 16 27 1011.9 - 0.0
23/08:00am 14.7 8.8 11.3 80 1.8 SW 33 57 18 31 1011.7 - 0.0
23/07:44am 15.6 10.4 11.6 77 2.2 SW 30 54 16 29 1010.5 - 0.0
23/07:41am 16.2 9.9 10.9 71 2.8 NNW 35 48 19 26 1010.6 - 0.0
23/07:30am 16.4 14.1 9.1 62 3.8 NNW 11 17 6 9 1008.6 - 0.0
23/07:00am 16.4 14.1 8.9 61 3.9 NNW 11 17 6 9 1009.1 - 0.0
23/06:30am 16.4 13.2 8.6 60 4.0 NNW 15 20 8 11 1008.8 - 0.0
23/06:00am 16.0 13.2 8.5 61 3.8 NNW 13 19 7 10 1008.7 1008.7 0.0
23/05:30am 14.8 12.2 7.8 63 3.5 NNW 11 15 6 8 1009.2 - 0.0
23/05:00am 14.6 11.5 7.4 62 3.5 WNW 13 17 7 9 1009.4 - 0.0
23/04:30am 14.8 11.7 7.1 60 3.8 WNW 13 17 7 9 1009.8 - 0.0
23/04:00am 14.2 11.5 7.3 63 3.4 WNW 11 13 6 7 1009.9 - 0.0
23/03:30am 13.1 10.8 7.5 69 2.7 NW 9 11 5 6 1010.3 - 0.0
23/03:00am 11.7 10.0 8.2 79 1.7 NNW 7 9 4 5 1010.9 1010.9 0.0
23/02:30am 11.6 9.8 7.9 78 1.8 NNW 7 9 4 5 1011.4 - 0.0
23/02:00am 11.7 10.9 8.0 78 1.8 NW 2 7 1 4 1011.7 - 0.0
23/01:30am 14.4 12.0 7.2 62 3.5 NNW 9 15 5 8 1012.1 - 0.0
23/01:00am 14.9 12.2 7.2 60 3.8 NW 11 15 6 8 1012.5 - 0.0
23/12:30am 14.9 11.9 7.9 63 3.5 NW 13 20 7 11 1013.0 - 0.0
23/12:00am 13.6 10.9 9.1 74 2.3 NW 13 19 7 10 1013.4 1013.4 0.0
 
Date/Time
EST
Temp
°C
App
Temp
°C
Dew
Point
Rel
Hum
%
Delta-T
°C
Wind Press
QNH
hPa
Press
MSL
hPa
Rain
since 9 am
mm
Dir
 
Spd
km/h
Gust
km/h
Spd
kts
Gust
kts
22/11:30pm 13.4 11.6 9.3 76 2.1 NW 9 13 5 7 1013.7 - 0.0
22/11:00pm 15.0 12.5 9.8 71 2.7 NW 13 15 7 8 1013.7 - 0.0
22/10:30pm 14.4 12.4 10.2 76 2.2 NNW 11 15 6 8 1013.8 - 0.0
22/10:00pm 13.7 12.6 10.7 82 1.6 NW 7 7 4 4 1014.6 - 0.0
22/09:30pm 15.8 14.9 11.4 75 2.4 NW 7 13 4 7 1014.7 - 0.0
22/09:00pm 16.3 14.5 12.1 76 2.3 NNW 13 19 7 10 1014.8 1014.8 0.0
22/08:30pm 15.9 14.9 12.3 79 2.0 NNW 9 15 5 8 1015.1 - 0.0
22/08:00pm 16.0 15.0 12.4 79 2.0 NNW 9 13 5 7 1015.1 - 0.0
22/07:30pm 16.6 15.3 12.4 76 2.3 NW 11 15 6 8 1015.2 - 0.0

Other Formats:

Comma delimited format used in spreadsheet applications
http://www.bom.gov.au/fwo/IDV60801/IDV60801.94935.axf

JavaScript Object Notation format (JSON) in row-major order
http://www.bom.gov.au/fwo/IDV60801/IDV60801.94935.json